KRNT - Renton, Washington, USA
Distance from station: W 21mi, 33km
Updated: Tue, 03-Aug-2021 11:53am PDT
Haze, Clear
Haze, Clear
 Wind from NW
Wind: NW 7 mph , 11 km/h
Temperature: 75°F , 24°C
Dew Point: 54°F , 12°C
Humidity: 47%
Barometer: 30.07 inHg , 1018.3 hPa
Visibility: 6 miles , 10 km
2021/08/03 18:53 KRNT 031853Z 32006KT 6SM HZ CLR 24/12 A3007 RMK AO2 SLP186 T02440122
KBFI - Seattle/Boeing, Washington, USA
Distance from station: W 25mi, 41km
Updated: Tue, 03-Aug-2021 11:53am PDT

 Wind from W
Wind: W 7 mph , 11 km/h
Temperature: 73°F , 23°C
Dew Point: 55°F , 13°C
Humidity: 53%
Barometer: 30.07 inHg , 1018.3 hPa
Visibility: 10 miles , 16 km
2021/08/03 18:53 KBFI 031853Z 28006KT 10SM CLR 23/13 A3007 RMK AO2 SLP182 T02280128
 
KSEA - Seattle/Metro, Washington, USA
Distance from station: W 25mi, 41km
Updated: Tue, 03-Aug-2021 11:53am PDT

 Wind from NW
Wind: NW 6 mph , 9 km/h
Temperature: 73°F , 23°C
Dew Point: 55°F , 13°C
Humidity: 53%
Barometer: 30.08 inHg , 1018.6 hPa
Visibility: 10 miles , 16 km
Cloud details: 15000 ft
25000 ft
2021/08/03 18:53 KSEA 031853Z 31005KT 10SM FEW150 SCT250 23/13 A3008 RMK AO2 SLP190 T02280128 $
KSMP - Stampede Pass, Washington, USA
Distance from station: SE 26mi, 41km
Updated: Tue, 03-Aug-2021 11:56am PDT

 Wind from varies
Wind: varies 3 mph , 6 km/h
Temperature: 82°F , 28°C
Dew Point: 50°F , 10°C
Humidity: 32%
Barometer: 30.20 inHg , 1022.7 hPa
Visibility: 10 miles , 16 km
2021/08/03 18:56 KSMP 031856Z AUTO VRB03KT 10SM CLR 28/10 A3020 RMK AO2 SLP184 T02830100
 
KPLU - Puyallup/Thun, Washington, USA
Distance from station: SW 36mi, 59km
Updated: Tue, 03-Aug-2021 12:15pm PDT

 Wind from calm
Wind: Calm
Temperature: 77°F , 25°C
Dew Point: 55°F , 13°C
Humidity: 47%
Barometer: 30.08 inHg , 1018.6 hPa
Visibility: 10 miles , 16 km
2021/08/03 19:15 KPLU 031915Z AUTO 00000KT 10SM CLR 25/13 A3008 RMK AO2
KPAE - Everett, Washington, USA
Distance from station: NW 37mi, 60km
Updated: Tue, 03-Aug-2021 11:53am PDT

 Wind from WNW
Wind: WNW 6 mph , 9 km/h
Temperature: 72°F , 22°C
Dew Point: 55°F , 13°C
Humidity: 57%
Barometer: 30.10 inHg , 1019.3 hPa
Visibility: 10 miles , 16 km
2021/08/03 18:53 KPAE 031853Z 30005KT 10SM CLR 22/13 A3010 RMK AO2 SLP189 T02170133
 
KTIW - Tacoma, Washington, USA
Distance from station: WSW 41mi, 66km
Updated: Tue, 03-Aug-2021 11:53am PDT

 Wind from E
Wind: E 6 mph , 9 km/h
Temperature: 70°F , 21°C
Dew Point: 54°F , 12°C
Humidity: 57%
Barometer: 30.08 inHg , 1018.6 hPa
Visibility: 10 miles , 16 km
2021/08/03 18:53 KTIW 031853Z 08005KT 10SM CLR 21/12 A3008 RMK AO2 SLP183 T02110122
KTCM - Tacoma/Mc Chord, Washington, USA
Distance from station: SW 42mi, 67km
Updated: Tue, 03-Aug-2021 11:58am PDT

 Wind from NNE
Wind: NNE 9 mph , 15 km/h
Temperature: 77°F , 25°C
Dew Point: 55°F , 13°C
Humidity: 47%
Barometer: 30.07 inHg , 1018.3 hPa
Visibility: 10 miles , 16 km
Cloud details: 13000 ft
2021/08/03 18:58 KTCM 031858Z AUTO 02008KT 10SM FEW130 25/13 A3007 RMK AO2 SLP185 T02490131 $
 
KPWT - Bremerton Ntnl, Washington, USA
Distance from station: W 45mi, 73km
Updated: Tue, 03-Aug-2021 11:56am PDT

 Wind from calm
Wind: Calm
Temperature: 79°F , 26°C
Dew Point: 57°F , 14°C
Humidity: 48%
Barometer: 30.08 inHg , 1018.6 hPa
Visibility: 10 miles , 16 km
2021/08/03 18:56 KPWT 031856Z AUTO 00000KT 10SM CLR 26/14 A3008 RMK AO2 SLP188 T02610139
KGRF - Fort Lewis/Gray, Washington, USA
Distance from station: SW 48mi, 77km
Updated: Tue, 03-Aug-2021 11:58am PDT

 Wind from N
Wind: N 7 mph , 11 km/h
Temperature: 79°F , 26°C
Dew Point: 54°F , 12°C
Humidity: 42%
Barometer: 30.06 inHg , 1017.9 hPa
Visibility: 10 miles , 16 km
Cloud details: 16000 ft
19000 ft
2021/08/03 18:58 KGRF 031858Z 35006KT 10SM FEW160 SCT190 26/12 A3006 RMK AO2A SLP181 T02570122 $
 
KAWO - Arlington Muni, Washington, USA
Distance from station: NNW 50mi, 80km
Updated: Tue, 03-Aug-2021 11:56am PDT

 Wind from NNW
Wind: NNW 7 mph , 11 km/h
Temperature: 75°F , 24°C
Dew Point: 57°F , 14°C
Humidity: 54%
Barometer: 30.08 inHg , 1018.6 hPa
Visibility: 10 miles , 16 km
2021/08/03 18:56 KAWO 031856Z AUTO 33006KT 10SM 24/14 A3008 RMK AO2 SLP188 T02390144